Time;durP1;ratioP1;P1;durP2;ratioP2;P2;SDS_P1;SDS_P2;PMS_P1;PMS_P2;Temp;Humidity;BMP_temperature;BMP_pressure;BME280_temperature;BME280_humidity;BME280_pressure;Samples;Min_cycle;Max_cycle;Signal;HPM_P1;HPM_P2
2021/01/26 00:00:14;;;;;;;16.20;9.65;;;;;;;0.26;70.23;98763.03;3624040;80;30202;-67
2021/01/26 00:05:19;;;;;;;14.63;8.63;;;;;;;0.29;70.54;98763.97;3624281;80;30071;-64
2021/01/26 00:10:23;;;;;;;14.47;9.65;;;;;;;0.29;70.35;98769.20;3604631;81;29451;-67
2021/01/26 00:15:27;;;;;;;14.35;7.62;;;;;;;0.28;71.13;98773.33;3624573;81;29758;-67
2021/01/26 00:20:32;;;;;;;17.45;11.78;;;;;;;0.24;71.11;98772.09;3629831;80;28831;-65
2021/01/26 00:25:38;;;;;;;17.48;10.95;;;;;;;0.22;71.60;98783.27;3637551;80;28269;-66
2021/01/26 00:30:42;;;;;;;20.25;11.08;;;;;;;0.19;71.99;98781.02;3623389;80;30302;-65
2021/01/26 00:35:46;;;;;;;12.82;6.42;;;;;;;0.21;72.28;98788.19;3653268;79;30207;-65
2021/01/26 00:40:50;;;;;;;16.50;10.68;;;;;;;0.15;73.19;98787.64;3657623;79;30081;-66
2021/01/26 00:45:52;;;;;;;25.57;12.68;;;;;;;0.12;73.26;98788.02;3657901;79;31233;-65
2021/01/26 00:50:55;;;;;;;31.12;18.52;;;;;;;0.13;73.59;98790.95;3657385;79;29317;-66
2021/01/26 00:55:59;;;;;;;22.40;11.85;;;;;;;0.18;74.62;98793.81;3656707;79;28817;-65
2021/01/26 01:01:02;;;;;;;24.92;14.20;;;;;;;0.17;74.55;98793.00;3657182;79;30189;-65
2021/01/26 01:06:06;;;;;;;30.75;15.43;;;;;;;0.14;75.07;98802.55;3656921;79;29341;-66
2021/01/26 01:11:09;;;;;;;28.05;19.15;;;;;;;0.04;76.74;98796.83;3656040;79;30327;-66
2021/01/26 01:16:14;;;;;;;18.67;11.17;;;;;;;0.10;77.14;98798.69;3656397;79;25875;-66
2021/01/26 01:21:18;;;;;;;28.00;16.77;;;;;;;0.00;78.48;98789.06;3672823;79;30607;-67
2021/01/26 01:26:22;;;;;;;16.32;7.45;;;;;;;0.05;77.79;98781.41;3642100;80;26562;-66
2021/01/26 01:31:26;;;;;;;36.42;18.32;;;;;;;-0.08;79.12;98774.78;3653200;80;30121;-66
2021/01/26 01:36:30;;;;;;;34.18;17.87;;;;;;;0.02;78.61;98776.55;3653340;80;28341;-66
2021/01/26 01:41:36;;;;;;;33.20;19.70;;;;;;;0.01;79.12;98782.79;3653176;80;26549;-66
2021/01/26 01:46:46;;;;;;;40.78;23.02;;;;;;;0.15;78.59;98787.64;3653537;80;28367;-68
2021/01/26 01:51:51;;;;;;;33.95;19.85;;;;;;;0.18;78.57;98788.07;3663023;79;30336;-67
2021/01/26 01:57:00;;;;;;;37.35;19.25;;;;;;;0.15;78.73;98786.33;3660490;79;27327;-68
2021/01/26 02:02:04;;;;;;;39.50;19.32;;;;;;;0.21;78.59;98791.63;3645449;80;29539;-66
2021/01/26 02:07:07;;;;;;;32.60;21.20;;;;;;;0.20;78.86;98799.67;3562097;80;30738;-68
2021/01/26 02:12:11;;;;;;;20.40;11.53;;;;;;;0.24;78.42;98796.98;3530438;82;28378;-67
2021/01/26 02:17:31;;;;;;;38.60;22.52;;;;;;;0.23;78.56;98794.05;3597318;81;29214;-68
2021/01/26 02:23:18;;;;;;;36.55;18.75;;;;;;;0.21;78.70;98799.48;3564803;81;27469;-65
2021/01/26 02:28:39;;;;;;;38.70;25.95;;;;;;;0.25;78.71;98802.05;3572091;80;30060;-67
2021/01/26 02:34:36;;;;;;;39.98;20.65;;;;;;;0.16;78.95;98793.19;3633461;80;30157;-66
2021/01/26 02:40:01;;;;;;;29.50;17.20;;;;;;;0.17;79.05;98793.50;3635993;80;30218;-67
2021/01/26 02:45:23;;;;;;;37.15;19.90;;;;;;;0.19;78.95;98801.48;3636227;80;30556;-66
2021/01/26 02:50:37;;;;;;;33.18;18.82;;;;;;;0.24;78.61;98803.05;3634098;80;30198;-66
2021/01/26 02:55:48;;;;;;;47.00;26.57;;;;;;;0.21;79.07;98805.23;3642338;79;30215;-66
2021/01/26 03:00:55;;;;;;;21.95;11.75;;;;;;;0.20;78.85;98808.35;3642092;79;30589;-65
2021/01/26 03:06:08;;;;;;;17.47;8.73;;;;;;;0.16;79.19;98812.84;3647087;80;27301;-68
2021/01/26 03:11:43;;;;;;;33.58;19.98;;;;;;;0.16;79.17;98813.66;3642780;79;27105;-68
2021/01/26 03:16:50;;;;;;;28.47;13.27;;;;;;;0.18;79.27;98819.52;3649059;79;29432;-63
2021/01/26 03:21:57;;;;;;;27.20;15.73;;;;;;;0.22;79.16;98818.64;3638074;79;30093;-64
2021/01/26 03:27:03;;;;;;;;;;;;;;;0.20;79.36;98818.02;3630484;80;26410;-64
2021/01/26 03:32:22;;;;;;;32.70;21.60;;;;;;;0.15;79.77;98817.78;3611130;80;25890;-65
2021/01/26 03:37:26;;;;;;;32.63;19.65;;;;;;;0.14;79.50;98816.16;3602585;81;28395;-65
2021/01/26 03:42:31;;;;;;;22.05;13.43;;;;;;;0.16;79.13;98824.14;3567948;81;27394;-65
2021/01/26 03:47:57;;;;;;;35.35;21.00;;;;;;;0.05;79.65;98823.84;3562621;82;30184;-68
2021/01/26 03:53:15;;;;;;;30.07;17.17;;;;;;;0.07;79.91;98820.03;3562363;82;25899;-66
2021/01/26 03:58:49;;;;;;;28.80;13.83;;;;;;;0.07;79.70;98817.41;3600870;80;26450;-65
2021/01/26 04:04:36;;;;;;;36.10;21.43;;;;;;;0.06;79.81;98821.53;3723002;76;34733;-65
2021/01/26 04:09:43;;;;;;;28.65;15.00;;;;;;;0.04;79.38;98825.65;3535999;78;26967;-65
2021/01/26 04:15:05;;;;;;;22.77;13.40;;;;;;;0.02;79.81;98826.83;3626800;79;28859;-65
2021/01/26 04:20:13;;;;;;;28.02;20.70;;;;;;;-0.02;80.50;98843.45;3626993;80;30205;-65
2021/01/26 04:25:43;;;;;;;33.67;19.20;;;;;;;-0.05;80.54;98844.64;3651482;80;31202;-66
2021/01/26 04:30:46;;;;;;;24.37;13.78;;;;;;;0.04;80.14;98844.48;3662434;79;30082;-65
2021/01/26 04:35:49;;;;;;;29.70;18.12;;;;;;;0.00;80.46;98840.16;3632103;79;30129;-66
2021/01/26 04:41:00;;;;;;;33.25;20.02;;;;;;;0.03;80.25;98844.98;3699140;78;28880;-65
2021/01/26 04:46:41;;;;;;;24.67;13.30;;;;;;;0.09;80.28;98841.62;3620154;79;28931;-66
2021/01/26 04:52:10;;;;;;;29.27;17.65;;;;;;;0.10;80.20;98848.48;3666918;79;30105;-68
2021/01/26 04:57:53;;;;;;;32.98;18.37;;;;;;;0.07;80.29;98852.78;3649269;79;29311;-66
2021/01/26 05:03:19;;;;;;;35.00;20.57;;;;;;;0.02;80.17;98845.98;3563651;80;26565;-66
2021/01/26 05:08:31;;;;;;;23.18;15.28;;;;;;;0.06;80.29;98852.47;3659391;79;30042;-65
2021/01/26 05:13:50;;;;;;;23.90;11.55;;;;;;;0.08;79.99;98855.72;3683994;78;28211;-67
2021/01/26 05:19:01;;;;;;;26.45;16.27;;;;;;;0.06;79.91;98870.81;3714912;78;27443;-65
2021/01/26 05:24:24;;;;;;;30.60;16.85;;;;;;;0.17;79.77;98878.18;3714175;78;28329;-65
2021/01/26 05:29:28;;;;;;;27.75;16.23;;;;;;;0.16;79.61;98883.11;3717934;78;25873;-67
2021/01/26 05:34:35;;;;;;;32.40;16.27;;;;;;;0.12;79.94;98887.10;3718045;78;26014;-66
2021/01/26 05:40:07;;;;;;;14.78;9.35;;;;;;;0.16;79.34;98885.73;3713771;78;29789;-64
2021/01/26 05:45:27;;;;;;;33.23;15.58;;;;;;;0.15;79.76;98888.03;3708831;78;28094;-66
2021/01/26 05:50:34;;;;;;;38.17;14.45;;;;;;;0.13;79.83;98880.86;3660420;78;30354;-70
2021/01/26 05:55:38;;;;;;;28.57;16.23;;;;;;;0.12;79.94;98889.72;3697582;78;32555;-67
2021/01/26 06:00:43;;;;;;;29.35;21.00;;;;;;;0.15;79.88;98891.16;3680353;78;26318;-66
2021/01/26 06:06:10;;;;;;;25.27;17.77;;;;;;;0.13;80.02;98890.53;3742119;78;30786;-66
2021/01/26 06:11:18;;;;;;;23.27;11.65;;;;;;;0.23;79.99;98906.76;3715941;78;30451;-66
2021/01/26 06:16:23;;;;;;;34.78;18.98;;;;;;;0.16;80.03;98902.77;3712864;78;25929;-69
2021/01/26 06:21:28;;;;;;;23.57;14.75;;;;;;;0.19;79.94;98908.12;3755647;78;26553;-68
2021/01/26 06:26:35;;;;;;;28.25;14.20;;;;;;;0.21;79.93;98902.20;3724441;78;29726;-64
2021/01/26 06:32:07;;;;;;;25.00;13.53;;;;;;;0.22;79.56;98911.19;3764606;77;26132;-64
2021/01/26 06:37:42;;;;;;;25.65;13.10;;;;;;;0.23;79.20;98918.05;3781355;76;30080;-64
2021/01/26 06:43:02;;;;;;;24.20;13.35;;;;;;;0.20;79.49;98919.73;3729238;77;29287;-66
2021/01/26 06:48:26;;;;;;;26.60;16.90;;;;;;;0.16;78.78;98922.42;3724664;78;27042;-67
2021/01/26 06:54:06;;;;;;;15.58;9.00;;;;;;;0.20;78.32;98924.17;3739442;76;29899;-68
2021/01/26 06:59:35;;;;;;;19.93;11.33;;;;;;;0.14;78.13;98927.53;3768490;78;34908;-67
2021/01/26 07:04:58;;;;;;;16.93;10.60;;;;;;;0.17;77.53;98932.41;3746532;77;30126;-67
2021/01/26 07:16:28;;;;;;;16.33;9.07;;;;;;;0.22;76.52;98923.48;3641379;78;34863;-69
2021/01/26 07:22:09;;;;;;;21.15;12.05;;;;;;;0.20;75.80;98932.03;3584244;80;30377;-69
2021/01/26 07:27:43;;;;;;;19.85;11.30;;;;;;;0.23;76.02;98928.53;3562642;81;29395;-70
2021/01/26 07:32:54;;;;;;;14.83;10.38;;;;;;;0.26;76.74;98937.34;3592728;80;27462;-66
2021/01/26 07:38:18;;;;;;;22.00;12.20;;;;;;;0.24;77.41;98945.08;3609090;81;28853;-67
2021/01/26 07:43:32;;;;;;;20.55;11.45;;;;;;;0.22;77.64;98954.44;3591416;81;29675;-68
2021/01/26 07:49:07;;;;;;;25.88;13.38;;;;;;;0.17;78.32;98945.00;3631758;81;30907;-66
2021/01/26 07:54:17;;;;;;;13.43;6.42;;;;;;;0.25;78.72;98942.27;3608073;80;29308;-66
2021/01/26 07:59:29;;;;;;;29.90;16.55;;;;;;;0.31;78.48;98943.30;3587126;81;30221;-66
2021/01/26 08:04:40;;;;;;;29.48;15.75;;;;;;;0.34;78.40;98942.43;3566681;81;28559;-67
2021/01/26 08:09:48;;;;;;;25.48;15.03;;;;;;;0.38;78.39;98944.17;3542238;82;29388;-66
2021/01/26 08:14:54;;;;;;;37.07;18.23;;;;;;;0.46;78.67;98951.11;3505066;82;26017;-66
2021/01/26 08:20:07;;;;;;;30.57;23.85;;;;;;;0.58;77.70;98960.91;3514419;82;30596;-66
2021/01/26 08:25:42;;;;;;;26.62;14.63;;;;;;;0.64;77.45;98969.80;3517359;82;29728;-66
2021/01/26 08:30:50;;;;;;;22.37;15.73;;;;;;;0.54;77.79;98966.22;3540448;82;26050;-65
2021/01/26 08:36:33;;;;;;;18.57;8.63;;;;;;;0.49;77.93;98977.77;3545247;82;28554;-66
2021/01/26 08:41:46;;;;;;;33.10;17.95;;;;;;;0.52;78.30;98987.88;3517828;82;29188;-66
2021/01/26 08:46:53;;;;;;;24.43;16.30;;;;;;;0.52;78.07;98991.00;3523385;81;30467;-67
2021/01/26 08:52:16;;;;;;;22.75;13.72;;;;;;;0.55;77.48;98998.00;3513839;82;29706;-65
2021/01/26 08:57:33;;;;;;;32.42;16.07;;;;;;;0.57;77.89;99001.74;3515334;82;30924;-66
2021/01/26 09:02:46;;;;;;;21.73;12.23;;;;;;;0.52;78.15;99001.49;3517689;82;25894;-66
2021/01/26 09:07:56;;;;;;;30.37;15.20;;;;;;;0.45;78.04;99007.98;3518115;82;29513;-67
2021/01/26 09:13:30;;;;;;;5.90;3.75;;;;;;;0.53;77.69;99004.42;3525378;81;28332;-69
2021/01/26 09:18:33;;;;;;;22.35;12.85;;;;;;;0.46;78.10;99012.72;3540355;81;29347;-65
2021/01/26 09:23:38;;;;;;;19.83;13.53;;;;;;;0.48;77.78;99013.34;3545572;81;26985;-68
2021/01/26 09:28:44;;;;;;;23.35;12.98;;;;;;;0.54;77.85;99017.85;3585337;81;28364;-67
2021/01/26 09:33:47;;;;;;;11.43;6.77;;;;;;;0.62;77.64;99016.39;3596262;81;26421;-66
2021/01/26 09:38:50;;;;;;;20.77;15.07;;;;;;;0.58;77.72;99010.73;3597323;81;26560;-70
2021/01/26 09:44:08;;;;;;;23.67;13.05;;;;;;;0.73;77.26;99007.21;3590292;81;31289;-70
2021/01/26 09:49:30;;;;;;;20.52;13.65;;;;;;;0.75;77.01;99016.52;3588315;81;30279;-67
2021/01/26 09:54:37;;;;;;;7.33;4.22;;;;;;;0.76;77.22;99020.77;3574245;81;30180;-68
2021/01/26 09:59:40;;;;;;;17.92;10.53;;;;;;;0.63;77.64;99034.56;3564877;80;29312;-68
2021/01/26 10:04:44;;;;;;;23.47;13.85;;;;;;;0.76;77.18;99028.63;3586241;80;30226;-70
2021/01/26 10:09:46;;;;;;;16.12;8.90;;;;;;;0.82;76.57;99033.63;3574568;81;30473;-68
2021/01/26 10:15:13;;;;;;;26.90;13.35;;;;;;;0.77;76.61;99032.88;3568689;81;31184;-68
2021/01/26 10:20:29;;;;;;;22.63;13.70;;;;;;;0.77;77.00;99034.19;3584689;81;25912;-69
2021/01/26 10:25:33;;;;;;;14.60;9.90;;;;;;;0.86;76.54;99038.81;3617887;81;30054;-70
2021/01/26 10:30:44;;;;;;;5.83;3.75;;;;;;;0.86;76.69;99034.88;3575589;81;28276;-68
2021/01/26 10:35:47;;;;;;;11.60;8.90;;;;;;;0.82;76.01;99025.26;3517645;83;29752;-68
2021/01/26 10:41:14;;;;;;;17.80;9.28;;;;;;;0.93;74.78;99035.72;3580113;81;30067;-68
2021/01/26 10:46:38;;;;;;;10.47;8.07;;;;;;;1.06;75.09;99036.34;3599632;81;35467;-68
2021/01/26 10:51:42;;;;;;;16.65;10.45;;;;;;;1.10;74.53;99033.64;3601546;81;30257;-69
2021/01/26 10:56:45;;;;;;;22.05;11.85;;;;;;;1.11;74.88;99037.89;3582543;81;30151;-67
2021/01/26 11:01:49;;;;;;;16.05;9.95;;;;;;;1.28;73.79;99036.09;3601184;81;30170;-68
2021/01/26 11:06:52;;;;;;;10.28;7.72;;;;;;;1.29;74.15;99044.78;3612423;81;30953;-68
2021/01/26 11:11:54;;;;;;;13.58;8.98;;;;;;;1.27;74.28;99050.72;3612006;81;30684;-68
2021/01/26 11:16:56;;;;;;;16.25;9.55;;;;;;;1.23;75.22;99048.97;3607720;81;30142;-69
2021/01/26 11:21:58;;;;;;;10.58;6.78;;;;;;;1.13;75.75;99043.77;3585572;81;28913;-67
2021/01/26 11:27:00;;;;;;;22.43;12.20;;;;;;;1.20;75.96;99044.63;3605060;81;26453;-67
2021/01/26 11:32:03;;;;;;;18.67;12.10;;;;;;;1.34;75.71;99047.14;3605425;81;28390;-69
2021/01/26 11:37:05;;;;;;;6.00;3.53;;;;;;;1.37;75.63;99045.95;3601349;81;26049;-68
2021/01/26 11:42:09;;;;;;;9.85;7.15;;;;;;;1.37;75.55;99043.83;3598255;81;28298;-69
2021/01/26 11:47:11;;;;;;;12.50;8.70;;;;;;;1.30;75.60;99042.46;3595348;81;27702;-68
2021/01/26 11:52:14;;;;;;;18.23;10.90;;;;;;;1.42;74.87;99040.13;3601362;79;27289;-69
2021/01/26 11:57:16;;;;;;;20.65;14.40;;;;;;;1.52;75.00;99026.97;3606044;80;29681;-68
2021/01/26 12:02:18;;;;;;;23.27;12.15;;;;;;;1.71;73.90;99031.19;3601497;80;30142;-70
2021/01/26 12:07:20;;;;;;;21.85;14.25;;;;;;;1.80;74.10;99032.66;3602677;81;30181;-66
2021/01/26 12:12:22;;;;;;;18.05;10.28;;;;;;;1.91;73.16;99029.45;3588977;81;30065;-67
2021/01/26 12:17:24;;;;;;;19.62;12.13;;;;;;;1.87;73.22;99026.40;3642191;81;29850;-68
2021/01/26 12:22:26;;;;;;;14.87;10.65;;;;;;;1.95;72.43;99025.42;3645766;80;29265;-68
2021/01/26 12:27:29;;;;;;;16.67;10.03;;;;;;;1.96;72.88;99032.30;3606812;81;30165;-66
2021/01/26 12:32:33;;;;;;;11.57;6.03;;;;;;;1.94;72.50;99034.31;3630125;81;30605;-68
2021/01/26 12:37:35;;;;;;;16.20;8.88;;;;;;;1.80;73.99;99039.22;3624903;81;28775;-70
2021/01/26 12:42:40;;;;;;;22.25;12.28;;;;;;;1.76;74.59;99040.61;3623618;81;28336;-66
2021/01/26 12:47:43;;;;;;;18.80;10.98;;;;;;;1.71;74.13;99035.94;3641455;81;30174;-69
2021/01/26 12:52:47;;;;;;;18.17;11.65;;;;;;;1.71;73.79;99037.76;3625836;80;30328;-67
2021/01/26 12:57:49;;;;;;;10.88;7.37;;;;;;;1.67;74.39;99038.14;3640539;81;30222;-68
2021/01/26 13:02:55;;;;;;;23.95;13.98;;;;;;;1.68;75.21;99034.52;3639263;80;30066;-68
2021/01/26 13:07:58;;;;;;;26.37;13.85;;;;;;;1.78;74.67;99029.41;3625834;81;30156;-70
2021/01/26 13:13:00;;;;;;;24.87;16.67;;;;;;;1.80;74.39;99030.03;3638871;80;30757;-69
2021/01/26 13:18:02;;;;;;;22.10;12.80;;;;;;;1.84;74.34;99036.48;3523066;81;30667;-69
2021/01/26 13:23:05;;;;;;;14.63;12.70;;;;;;;1.85;73.36;99038.92;3519164;81;30174;-71
2021/01/26 13:28:07;;;;;;;23.60;15.25;;;;;;;1.84;73.38;99047.81;3538370;81;30170;-68
2021/01/26 13:33:10;;;;;;;20.48;13.53;;;;;;;1.78;73.55;99039.42;3495075;82;30493;-69
2021/01/26 13:38:12;;;;;;;16.53;11.30;;;;;;;1.78;73.67;99042.55;3520049;82;26913;-67
2021/01/26 13:43:13;;;;;;;23.55;15.93;;;;;;;1.76;73.22;99041.93;3519692;81;30381;-67
2021/01/26 13:48:16;;;;;;;15.30;9.80;;;;;;;1.74;72.59;99041.31;3536892;81;30740;-67
2021/01/26 13:53:19;;;;;;;14.38;8.78;;;;;;;1.72;72.18;99033.63;3536461;81;29039;-74
2021/01/26 13:58:23;;;;;;;20.57;13.45;;;;;;;1.67;72.53;99047.34;3555242;81;27403;-68
2021/01/26 14:03:30;;;;;;;14.25;10.40;;;;;;;1.68;72.59;99047.64;3602161;81;30129;-68
2021/01/26 14:08:33;;;;;;;11.75;8.70;;;;;;;1.63;72.15;99046.60;3600388;81;30553;-67
2021/01/26 14:13:36;;;;;;;10.15;7.75;;;;;;;1.62;71.93;99054.17;3549810;81;29370;-69
2021/01/26 14:18:40;;;;;;;23.00;12.55;;;;;;;1.58;72.74;99063.44;3606837;81;30271;-69
2021/01/26 14:23:43;;;;;;;33.78;23.42;;;;;;;1.53;72.08;99066.64;3606487;79;30207;-69
2021/01/26 14:28:47;;;;;;;18.42;12.70;;;;;;;1.45;72.51;99070.75;3606645;80;31261;-69
2021/01/26 14:33:49;;;;;;;21.40;11.60;;;;;;;1.52;72.81;99075.55;3606763;81;29029;-67
2021/01/26 14:38:52;;;;;;;15.58;10.98;;;;;;;1.54;73.26;99080.59;3589149;81;30133;-71
2021/01/26 14:43:56;;;;;;;15.55;12.47;;;;;;;1.50;73.06;99078.06;3592331;81;30584;-68
2021/01/26 14:49:00;;;;;;;18.40;12.75;;;;;;;1.50;73.09;99080.69;3592166;81;29401;-67
2021/01/26 14:54:03;;;;;;;16.93;10.40;;;;;;;1.45;73.19;99085.20;3597626;81;30613;-66
2021/01/26 14:59:07;;;;;;;17.73;9.43;;;;;;;1.37;73.14;99091.91;3510711;81;30220;-66
2021/01/26 15:04:10;;;;;;;17.37;14.10;;;;;;;1.30;72.49;99092.34;3492235;82;27260;-69
2021/01/26 15:09:14;;;;;;;11.80;7.47;;;;;;;1.21;72.49;99093.51;3598109;81;27484;-68
2021/01/26 15:14:18;;;;;;;16.33;10.03;;;;;;;1.16;72.97;99094.58;3504506;82;26668;-70
2021/01/26 15:19:21;;;;;;;19.87;12.80;;;;;;;1.12;73.07;99099.39;3592035;81;29308;-66
2021/01/26 15:24:30;;;;;;;27.50;16.30;;;;;;;1.15;72.87;99112.64;3624807;79;30222;-71
2021/01/26 15:29:32;;;;;;;15.85;9.35;;;;;;;1.14;72.58;99111.83;3618539;81;30556;-72
2021/01/26 15:34:36;;;;;;;6.17;4.80;;;;;;;1.11;73.03;99119.27;3621761;81;25923;-73
2021/01/26 15:39:41;;;;;;;15.17;11.13;;;;;;;0.97;73.07;99111.27;3635106;80;26170;-68
2021/01/26 15:44:46;;;;;;;18.73;10.87;;;;;;;1.04;72.90;99128.88;3615618;81;25923;-70
2021/01/26 15:49:48;;;;;;;21.02;13.38;;;;;;;0.97;72.65;99119.13;3625665;80;30107;-69
2021/01/26 15:54:56;;;;;;;22.60;12.60;;;;;;;0.88;73.18;99133.40;3611062;80;30147;-69
2021/01/26 15:59:59;;;;;;;23.67;13.15;;;;;;;0.84;73.57;99138.70;3609914;80;27927;-69
2021/01/26 16:05:02;;;;;;;18.73;13.27;;;;;;;0.82;73.71;99145.95;3602726;81;25980;-70
2021/01/26 16:10:09;;;;;;;21.80;12.83;;;;;;;0.86;72.76;99143.77;3616383;80;25992;-70
2021/01/26 16:15:15;;;;;;;18.35;12.68;;;;;;;0.85;73.13;99157.88;3610519;81;25967;-70
2021/01/26 16:20:20;;;;;;;21.50;14.73;;;;;;;0.82;72.65;99156.44;3594278;79;26078;-64
2021/01/26 16:25:24;;;;;;;19.23;13.40;;;;;;;0.79;72.16;99163.37;3594338;81;26666;-64
2021/01/26 16:30:28;;;;;;;22.90;12.90;;;;;;;0.75;71.14;99164.73;3596767;81;25895;-64
2021/01/26 16:35:32;;;;;;;19.97;11.87;;;;;;;0.78;70.72;99172.73;3595456;80;26024;-66
2021/01/26 16:40:35;;;;;;;8.60;7.47;;;;;;;0.75;70.70;99174.41;3600715;81;25952;-63
2021/01/26 16:45:40;;;;;;;10.17;7.00;;;;;;;0.74;69.98;99180.16;3598377;81;26609;-64
2021/01/26 16:50:44;;;;;;;19.53;10.27;;;;;;;0.68;70.09;99175.15;3599517;81;26660;-64
2021/01/26 16:55:50;;;;;;;16.10;11.00;;;;;;;0.68;69.18;99180.89;3599627;81;26051;-68
2021/01/26 17:00:52;;;;;;;19.10;12.00;;;;;;;0.70;70.21;99184.15;3600264;81;25928;-64
2021/01/26 17:05:55;;;;;;;18.00;11.77;;;;;;;0.70;69.34;99188.08;3573288;81;26866;-71
2021/01/26 17:10:59;;;;;;;13.72;8.03;;;;;;;0.67;69.78;99193.69;3539274;82;28807;-67
2021/01/26 17:16:07;;;;;;;14.98;10.48;;;;;;;0.63;69.03;99206.86;3544668;82;25928;-66
2021/01/26 17:21:11;;;;;;;17.12;10.28;;;;;;;0.65;70.25;99202.24;3547251;82;28229;-65
2021/01/26 17:26:14;;;;;;;17.77;11.90;;;;;;;0.66;70.26;99211.73;3531035;82;28423;-68
2021/01/26 17:31:17;;;;;;;21.95;13.15;;;;;;;0.65;70.24;99217.98;3563654;81;30160;-69
2021/01/26 17:36:21;;;;;;;22.50;14.07;;;;;;;0.62;70.83;99211.78;3567692;79;26933;-68
2021/01/26 17:41:25;;;;;;;18.80;11.17;;;;;;;0.62;70.96;99210.47;3568279;80;25972;-68
2021/01/26 17:46:30;;;;;;;9.57;5.80;;;;;;;0.54;71.46;99212.73;3566870;81;26060;-64
2021/01/26 17:51:36;;;;;;;18.67;10.87;;;;;;;0.39;72.03;99216.34;3598046;81;26191;-68
2021/01/26 17:56:41;;;;;;;7.63;4.43;;;;;;;0.33;71.15;99216.07;3566223;81;26158;-67
2021/01/26 18:01:45;;;;;;;71.75;23.83;;;;;;;0.21;71.03;99211.48;3574523;81;27533;-68
2021/01/26 18:06:52;;;;;;;188.37;48.48;;;;;;;0.29;69.94;99209.59;3579652;80;26448;-67
2021/01/26 18:11:56;;;;;;;83.15;23.40;;;;;;;0.30;68.80;99211.22;3554688;82;28396;-68
2021/01/26 18:17:04;;;;;;;35.03;13.20;;;;;;;0.30;69.88;99209.91;3582525;81;26184;-67
2021/01/26 18:22:06;;;;;;;25.27;12.00;;;;;;;0.30;69.58;99216.46;3613333;81;26603;-68
2021/01/26 18:27:10;;;;;;;23.17;13.40;;;;;;;0.31;69.43;99220.67;3597671;81;26009;-66
2021/01/26 18:32:13;;;;;;;18.52;10.32;;;;;;;0.36;70.00;99227.19;3622131;81;26842;-69
2021/01/26 18:37:17;;;;;;;32.07;14.37;;;;;;;0.32;70.48;99226.23;3632257;79;26566;-67
2021/01/26 18:42:32;;;;;;;;;;;;;;;;;;;;;
2021/01/26 18:47:36;;;;;;;23.60;12.43;;;;;;;0.32;71.18;99225.42;3736554;76;34954;-66
2021/01/26 18:52:39;;;;;;;21.07;12.20;;;;;;;0.23;71.42;99231.28;3661359;78;30593;-68
2021/01/26 18:57:42;;;;;;;17.00;11.38;;;;;;;0.24;71.89;99226.85;3657790;78;28362;-66
2021/01/26 19:02:49;;;;;;;22.42;12.82;;;;;;;0.22;71.46;99229.65;3646154;80;30113;-67
2021/01/26 19:07:54;;;;;;;25.45;13.93;;;;;;;0.19;71.62;99231.31;3479834;82;30362;-67
2021/01/26 19:12:59;;;;;;;24.92;13.58;;;;;;;0.16;71.20;99229.55;3536029;81;30087;-65
2021/01/26 19:18:05;;;;;;;22.63;10.90;;;;;;;0.08;72.12;99235.69;3584392;81;26376;-68
2021/01/26 19:23:09;;;;;;;17.95;11.60;;;;;;;0.00;72.69;99235.26;3620234;80;30498;-69
2021/01/26 19:28:12;;;;;;;19.62;11.25;;;;;;;-0.06;72.10;99243.86;3578527;80;30392;-65
2021/01/26 19:33:15;;;;;;;23.83;13.38;;;;;;;-0.14;72.30;99237.38;3575187;81;28360;-67
2021/01/26 19:38:19;;;;;;;21.15;10.23;;;;;;;-0.14;71.97;99253.09;3581765;81;30664;-64
2021/01/26 19:43:22;;;;;;;26.63;13.50;;;;;;;-0.20;72.34;99250.37;3566667;80;36388;-66
2021/01/26 19:48:24;;;;;;;24.27;10.98;;;;;;;-0.25;72.22;99246.15;3563168;81;30406;-70
2021/01/26 19:53:28;;;;;;;23.90;13.53;;;;;;;-0.33;72.98;99254.09;3592877;81;27117;-69
2021/01/26 19:58:36;;;;;;;25.23;14.77;;;;;;;-0.33;72.89;99250.17;3601966;81;25953;-67
2021/01/26 20:03:39;;;;;;;17.80;9.28;;;;;;;-0.38;72.72;99248.89;3598062;81;25990;-69
2021/01/26 20:08:44;;;;;;;26.80;14.65;;;;;;;-0.48;73.87;99247.00;3592768;81;29488;-67
2021/01/26 20:13:50;;;;;;;30.82;17.17;;;;;;;-0.43;74.11;99251.22;3585232;81;30650;-68
2021/01/26 20:18:56;;;;;;;27.82;16.65;;;;;;;-0.48;74.14;99250.92;3585143;81;26570;-69
2021/01/26 20:23:59;;;;;;;31.02;14.73;;;;;;;-0.48;74.91;99256.66;3604029;81;26693;-73
2021/01/26 20:29:06;;;;;;;28.73;16.15;;;;;;;-0.45;75.38;99257.62;3601978;81;29628;-66
2021/01/26 20:34:33;;;;;;;;;;;;;;;-0.48;76.78;99259.28;3615730;81;26054;-72
2021/01/26 20:39:37;;;;;;;37.67;17.32;;;;;;;-0.49;76.78;99259.77;3630891;79;30411;-72
2021/01/26 20:44:42;;;;;;;27.10;13.70;;;;;;;-0.53;77.58;99255.87;3548422;81;28736;-73
2021/01/26 20:49:46;;;;;;;29.63;17.52;;;;;;;-0.52;78.10;99259.30;3660964;80;29838;-71
2021/01/26 20:54:50;;;;;;;28.73;19.02;;;;;;;-0.50;77.78;99263.88;3671663;80;29251;-68
2021/01/26 20:59:54;;;;;;;33.95;18.20;;;;;;;-0.50;78.72;99267.80;3676521;80;27998;-74
2021/01/26 21:05:00;;;;;;;13.22;7.90;;;;;;;-0.43;78.68;99268.73;3676132;80;28289;-66
2021/01/26 21:10:06;;;;;;;34.90;20.37;;;;;;;-0.50;79.69;99265.18;3674414;80;29634;-68
2021/01/26 21:15:12;;;;;;;40.08;17.92;;;;;;;-0.35;79.39;99268.18;3675809;80;28733;-68
2021/01/26 21:20:19;;;;;;;36.73;20.80;;;;;;;-0.37;80.27;99267.54;3655294;80;29561;-71
2021/01/26 21:25:29;;;;;;;43.53;23.67;;;;;;;-0.33;80.03;99269.81;3663390;80;26007;-70
2021/01/26 21:30:33;;;;;;;47.93;23.12;;;;;;;-0.39;80.62;99268.21;3630366;80;28329;-64
2021/01/26 21:35:42;;;;;;;48.02;26.68;;;;;;;-0.31;80.96;99273.89;3657528;80;30224;-67
2021/01/26 21:40:44;;;;;;;40.55;22.98;;;;;;;-0.30;81.28;99274.17;3655724;80;30204;-69
2021/01/26 21:45:47;;;;;;;46.47;23.07;;;;;;;-0.28;80.65;99277.44;3612923;80;28049;-71
2021/01/26 21:50:55;;;;;;;38.38;20.60;;;;;;;-0.23;81.16;99280.34;3573170;80;26399;-67
2021/01/26 21:55:59;;;;;;;32.25;16.42;;;;;;;-0.19;80.31;99274.27;3610957;80;29942;-67
2021/01/26 22:01:04;;;;;;;36.30;20.70;;;;;;;-0.14;80.13;99279.79;3576690;82;26558;-67
2021/01/26 22:06:06;;;;;;;30.80;18.87;;;;;;;-0.16;79.80;99269.98;3570914;82;26365;-67
2021/01/26 22:11:08;;;;;;;19.67;12.03;;;;;;;-0.15;79.33;99272.92;3675989;80;25946;-67
2021/01/26 22:16:15;;;;;;;30.80;16.52;;;;;;;-0.24;79.94;99285.27;3605027;80;30718;-66
2021/01/26 22:21:19;;;;;;;26.20;15.60;;;;;;;-0.28;79.66;99277.44;3628233;80;25903;-69
2021/01/26 22:26:24;;;;;;;16.20;11.18;;;;;;;-0.21;79.72;99285.41;3571737;82;27422;-65
2021/01/26 22:31:27;;;;;;;29.70;18.67;;;;;;;-0.18;78.91;99279.33;3560193;82;25908;-68
2021/01/26 22:36:31;;;;;;;30.30;17.67;;;;;;;-0.10;78.18;99283.69;3548848;82;29231;-71
2021/01/26 22:41:35;;;;;;;31.77;18.67;;;;;;;-0.03;78.05;99278.06;3587792;82;26518;-75
2021/01/26 22:46:37;;;;;;;71.15;36.48;;;;;;;-0.03;78.08;99277.56;3588604;82;30384;-78
2021/01/26 22:51:42;;;;;;;32.17;20.77;;;;;;;-0.04;77.80;99276.44;3578887;81;27400;-66
2021/01/26 22:56:45;;;;;;;32.48;18.57;;;;;;;0.00;77.71;99269.85;3616767;80;30200;-67
2021/01/26 23:01:50;;;;;;;35.88;20.43;;;;;;;-0.01;77.86;99270.34;3551079;83;29440;-71
2021/01/26 23:06:56;;;;;;;29.00;20.30;;;;;;;0.03;78.33;99263.41;3554323;81;34950;-66
2021/01/26 23:12:10;;;;;;;;;;;;;;;;;;;;;
2021/01/26 23:17:14;;;;;;;27.80;17.67;;;;;;;0.06;79.13;99264.37;3814459;75;34762;-75
2021/01/26 23:22:18;;;;;;;29.82;17.37;;;;;;;0.06;78.71;99270.92;3765585;77;30080;-70
2021/01/26 23:27:21;;;;;;;35.43;19.92;;;;;;;0.04;78.75;99270.28;3773185;77;29918;-69
2021/01/26 23:32:26;;;;;;;14.18;8.45;;;;;;;0.04;79.02;99276.83;3769561;77;30598;-66
2021/01/26 23:37:29;;;;;;;36.93;23.50;;;;;;;-0.07;79.67;99270.23;3712567;78;29950;-73
2021/01/26 23:42:32;;;;;;;38.60;21.40;;;;;;;0.04;79.43;99268.48;3748776;77;30076;-70
2021/01/26 23:47:36;;;;;;;47.60;28.05;;;;;;;0.04;79.74;99272.41;3733007;77;30573;-66
2021/01/26 23:52:38;;;;;;;35.40;21.68;;;;;;;0.09;80.17;99270.56;3732221;78;30502;-68
2021/01/26 23:57:53;;;;;;;15.70;9.95;;;;;;;0.14;79.65;99259.87;3733872;78;30167;-67
